sensor_id;sensor_type;location;lat;lon;timestamp;P1;durP1;ratioP1;P2;durP2;ratioP2
44098;SDS011;29762;50.086;14.364;2024-01-11T00:08:14;5.65;;;4.00;;
44098;SDS011;29762;50.086;14.364;2024-01-11T00:18:34;4.63;;;4.10;;
44098;SDS011;29762;50.086;14.364;2024-01-11T00:28:54;4.20;;;3.80;;
44098;SDS011;29762;50.086;14.364;2024-01-11T00:39:13;6.78;;;3.92;;
44098;SDS011;29762;50.086;14.364;2024-01-11T00:49:33;4.95;;;3.83;;
44098;SDS011;29762;50.086;14.364;2024-01-11T00:59:52;5.07;;;3.88;;
44098;SDS011;29762;50.086;14.364;2024-01-11T01:10:11;5.18;;;3.75;;
44098;SDS011;29762;50.086;14.364;2024-01-11T01:20:31;3.95;;;3.55;;
44098;SDS011;29762;50.086;14.364;2024-01-11T01:30:50;4.47;;;3.60;;
44098;SDS011;29762;50.086;14.364;2024-01-11T01:41:10;3.45;;;3.15;;
44098;SDS011;29762;50.086;14.364;2024-01-11T01:51:30;4.93;;;3.40;;
44098;SDS011;29762;50.086;14.364;2024-01-11T02:01:50;4.60;;;3.47;;
44098;SDS011;29762;50.086;14.364;2024-01-11T02:12:10;4.28;;;3.40;;
44098;SDS011;29762;50.086;14.364;2024-01-11T02:22:37;4.13;;;3.72;;
44098;SDS011;29762;50.086;14.364;2024-01-11T02:32:58;3.90;;;3.45;;
44098;SDS011;29762;50.086;14.364;2024-01-11T02:43:18;3.95;;;3.30;;
44098;SDS011;29762;50.086;14.364;2024-01-11T02:53:37;4.03;;;3.63;;
44098;SDS011;29762;50.086;14.364;2024-01-11T03:03:56;3.92;;;3.55;;
44098;SDS011;29762;50.086;14.364;2024-01-11T03:14:16;4.70;;;3.60;;
44098;SDS011;29762;50.086;14.364;2024-01-11T03:24:39;4.93;;;4.22;;
44098;SDS011;29762;50.086;14.364;2024-01-11T03:34:58;4.40;;;3.80;;
44098;SDS011;29762;50.086;14.364;2024-01-11T03:45:18;4.50;;;3.67;;
44098;SDS011;29762;50.086;14.364;2024-01-11T03:55:41;4.00;;;3.60;;
44098;SDS011;29762;50.086;14.364;2024-01-11T04:06:00;4.78;;;3.90;;
44098;SDS011;29762;50.086;14.364;2024-01-11T04:16:20;4.97;;;3.80;;
44098;SDS011;29762;50.086;14.364;2024-01-11T04:26:39;6.30;;;4.00;;
44098;SDS011;29762;50.086;14.364;2024-01-11T04:36:59;4.22;;;3.83;;
44098;SDS011;29762;50.086;14.364;2024-01-11T04:47:19;4.13;;;3.72;;
44098;SDS011;29762;50.086;14.364;2024-01-11T04:57:39;4.65;;;3.92;;
44098;SDS011;29762;50.086;14.364;2024-01-11T05:07:58;4.43;;;4.03;;
44098;SDS011;29762;50.086;14.364;2024-01-11T05:18:17;4.30;;;3.90;;
44098;SDS011;29762;50.086;14.364;2024-01-11T05:28:37;4.55;;;3.85;;
44098;SDS011;29762;50.086;14.364;2024-01-11T05:38:57;5.07;;;4.40;;
44098;SDS011;29762;50.086;14.364;2024-01-11T05:49:17;17.95;;;5.70;;
44098;SDS011;29762;50.086;14.364;2024-01-11T05:59:36;5.50;;;3.67;;
44098;SDS011;29762;50.086;14.364;2024-01-11T06:09:56;10.15;;;5.82;;
44098;SDS011;29762;50.086;14.364;2024-01-11T06:20:15;14.40;;;7.50;;
44098;SDS011;29762;50.086;14.364;2024-01-11T06:30:35;16.60;;;8.07;;
44098;SDS011;29762;50.086;14.364;2024-01-11T06:40:55;15.93;;;8.82;;
44098;SDS011;29762;50.086;14.364;2024-01-11T06:51:14;16.02;;;8.13;;
44098;SDS011;29762;50.086;14.364;2024-01-11T07:01:35;18.70;;;9.02;;
44098;SDS011;29762;50.086;14.364;2024-01-11T07:11:54;16.67;;;8.57;;
44098;SDS011;29762;50.086;14.364;2024-01-11T07:22:14;17.40;;;9.10;;
44098;SDS011;29762;50.086;14.364;2024-01-11T07:32:33;13.35;;;8.25;;
44098;SDS011;29762;50.086;14.364;2024-01-11T07:42:52;14.40;;;8.60;;
44098;SDS011;29762;50.086;14.364;2024-01-11T07:53:12;14.40;;;8.70;;
44098;SDS011;29762;50.086;14.364;2024-01-11T08:03:31;11.70;;;8.35;;
44098;SDS011;29762;50.086;14.364;2024-01-11T08:13:53;13.40;;;8.45;;
44098;SDS011;29762;50.086;14.364;2024-01-11T08:24:14;12.60;;;8.15;;
44098;SDS011;29762;50.086;14.364;2024-01-11T08:34:33;10.63;;;7.82;;
44098;SDS011;29762;50.086;14.364;2024-01-11T08:44:53;12.15;;;8.48;;
44098;SDS011;29762;50.086;14.364;2024-01-11T08:55:12;13.93;;;8.40;;
44098;SDS011;29762;50.086;14.364;2024-01-11T09:05:32;11.50;;;7.68;;
44098;SDS011;29762;50.086;14.364;2024-01-11T09:15:52;11.32;;;7.65;;
44098;SDS011;29762;50.086;14.364;2024-01-11T09:26:12;10.07;;;7.88;;
44098;SDS011;29762;50.086;14.364;2024-01-11T09:36:31;9.38;;;7.20;;
44098;SDS011;29762;50.086;14.364;2024-01-11T09:46:52;13.68;;;7.25;;
44098;SDS011;29762;50.086;14.364;2024-01-11T09:57:12;12.80;;;7.45;;
44098;SDS011;29762;50.086;14.364;2024-01-11T10:07:34;12.70;;;7.55;;
44098;SDS011;29762;50.086;14.364;2024-01-11T10:17:55;10.20;;;7.45;;
44098;SDS011;29762;50.086;14.364;2024-01-11T10:28:15;11.60;;;7.88;;
44098;SDS011;29762;50.086;14.364;2024-01-11T10:38:35;9.30;;;7.93;;
44098;SDS011;29762;50.086;14.364;2024-01-11T10:48:57;9.93;;;7.57;;
44098;SDS011;29762;50.086;14.364;2024-01-11T10:59:18;10.95;;;7.53;;
44098;SDS011;29762;50.086;14.364;2024-01-11T11:09:40;10.82;;;7.63;;
44098;SDS011;29762;50.086;14.364;2024-01-11T11:20:03;10.85;;;7.70;;
44098;SDS011;29762;50.086;14.364;2024-01-11T11:30:25;11.98;;;7.13;;
44098;SDS011;29762;50.086;14.364;2024-01-11T11:40:45;9.13;;;6.97;;
44098;SDS011;29762;50.086;14.364;2024-01-11T11:51:09;9.35;;;6.57;;
44098;SDS011;29762;50.086;14.364;2024-01-11T12:01:29;10.23;;;6.85;;
44098;SDS011;29762;50.086;14.364;2024-01-11T12:11:50;7.65;;;5.90;;
44098;SDS011;29762;50.086;14.364;2024-01-11T12:22:09;9.82;;;6.72;;
44098;SDS011;29762;50.086;14.364;2024-01-11T12:32:29;8.80;;;6.45;;
44098;SDS011;29762;50.086;14.364;2024-01-11T12:42:49;7.28;;;6.05;;
44098;SDS011;29762;50.086;14.364;2024-01-11T12:53:09;8.05;;;6.13;;
44098;SDS011;29762;50.086;14.364;2024-01-11T13:03:38;6.82;;;5.85;;
44098;SDS011;29762;50.086;14.364;2024-01-11T13:13:58;8.13;;;6.00;;
44098;SDS011;29762;50.086;14.364;2024-01-11T13:24:20;7.93;;;5.90;;
44098;SDS011;29762;50.086;14.364;2024-01-11T13:34:40;6.47;;;5.50;;
44098;SDS011;29762;50.086;14.364;2024-01-11T13:45:00;6.63;;;5.88;;
44098;SDS011;29762;50.086;14.364;2024-01-11T13:55:21;7.60;;;5.45;;
44098;SDS011;29762;50.086;14.364;2024-01-11T14:05:41;8.38;;;6.28;;
44098;SDS011;29762;50.086;14.364;2024-01-11T14:16:00;8.25;;;6.10;;
44098;SDS011;29762;50.086;14.364;2024-01-11T14:26:20;6.35;;;5.40;;
44098;SDS011;29762;50.086;14.364;2024-01-11T14:36:39;7.28;;;5.35;;
44098;SDS011;29762;50.086;14.364;2024-01-11T14:46:59;6.50;;;5.47;;
44098;SDS011;29762;50.086;14.364;2024-01-11T14:57:18;7.30;;;5.93;;
44098;SDS011;29762;50.086;14.364;2024-01-11T15:07:39;6.95;;;5.63;;
44098;SDS011;29762;50.086;14.364;2024-01-11T15:17:59;6.78;;;5.55;;
44098;SDS011;29762;50.086;14.364;2024-01-11T15:28:18;6.85;;;5.40;;
44098;SDS011;29762;50.086;14.364;2024-01-11T15:38:37;6.40;;;5.60;;
44098;SDS011;29762;50.086;14.364;2024-01-11T15:48:57;6.13;;;5.53;;
44098;SDS011;29762;50.086;14.364;2024-01-11T15:59:16;6.15;;;5.53;;
44098;SDS011;29762;50.086;14.364;2024-01-11T16:09:36;6.50;;;5.43;;
44098;SDS011;29762;50.086;14.364;2024-01-11T16:19:56;7.32;;;5.47;;
44098;SDS011;29762;50.086;14.364;2024-01-11T16:30:15;9.55;;;6.85;;
44098;SDS011;29762;50.086;14.364;2024-01-11T16:40:35;14.55;;;9.55;;
44098;SDS011;29762;50.086;14.364;2024-01-11T16:50:54;9.82;;;7.45;;
44098;SDS011;29762;50.086;14.364;2024-01-11T17:01:14;10.50;;;7.80;;
44098;SDS011;29762;50.086;14.364;2024-01-11T17:11:34;9.40;;;7.57;;
44098;SDS011;29762;50.086;14.364;2024-01-11T17:21:59;11.68;;;9.32;;
44098;SDS011;29762;50.086;14.364;2024-01-11T17:32:20;10.25;;;9.00;;
44098;SDS011;29762;50.086;14.364;2024-01-11T17:42:40;12.55;;;9.10;;
44098;SDS011;29762;50.086;14.364;2024-01-11T17:52:59;9.70;;;8.48;;
44098;SDS011;29762;50.086;14.364;2024-01-11T18:03:22;11.30;;;8.32;;
44098;SDS011;29762;50.086;14.364;2024-01-11T18:13:41;12.88;;;7.57;;
44098;SDS011;29762;50.086;14.364;2024-01-11T18:24:00;9.90;;;7.50;;
44098;SDS011;29762;50.086;14.364;2024-01-11T18:34:20;8.55;;;7.03;;
44098;SDS011;29762;50.086;14.364;2024-01-11T18:44:40;7.70;;;6.72;;
44098;SDS011;29762;50.086;14.364;2024-01-11T18:54:59;8.10;;;6.80;;
44098;SDS011;29762;50.086;14.364;2024-01-11T19:05:19;8.57;;;6.63;;
44098;SDS011;29762;50.086;14.364;2024-01-11T19:15:39;8.75;;;7.47;;
44098;SDS011;29762;50.086;14.364;2024-01-11T19:25:58;9.23;;;6.72;;
44098;SDS011;29762;50.086;14.364;2024-01-11T19:36:17;8.60;;;6.07;;
44098;SDS011;29762;50.086;14.364;2024-01-11T19:46:37;6.82;;;6.13;;
44098;SDS011;29762;50.086;14.364;2024-01-11T19:56:57;7.78;;;6.47;;
44098;SDS011;29762;50.086;14.364;2024-01-11T20:07:17;7.35;;;6.50;;
44098;SDS011;29762;50.086;14.364;2024-01-11T20:17:37;8.20;;;6.32;;
44098;SDS011;29762;50.086;14.364;2024-01-11T20:27:56;8.10;;;6.93;;
44098;SDS011;29762;50.086;14.364;2024-01-11T20:38:16;6.97;;;6.05;;
44098;SDS011;29762;50.086;14.364;2024-01-11T20:48:36;7.35;;;6.20;;
44098;SDS011;29762;50.086;14.364;2024-01-11T20:58:58;7.68;;;6.10;;
44098;SDS011;29762;50.086;14.364;2024-01-11T21:09:17;8.15;;;5.82;;
44098;SDS011;29762;50.086;14.364;2024-01-11T21:19:36;7.03;;;5.88;;
44098;SDS011;29762;50.086;14.364;2024-01-11T21:29:55;7.38;;;5.63;;
44098;SDS011;29762;50.086;14.364;2024-01-11T21:40:15;10.00;;;6.20;;
44098;SDS011;29762;50.086;14.364;2024-01-11T21:50:38;7.78;;;5.85;;
44098;SDS011;29762;50.086;14.364;2024-01-11T22:00:58;6.45;;;5.85;;
44098;SDS011;29762;50.086;14.364;2024-01-11T22:11:17;7.80;;;5.63;;
44098;SDS011;29762;50.086;14.364;2024-01-11T22:21:38;7.75;;;5.68;;
44098;SDS011;29762;50.086;14.364;2024-01-11T22:32:01;7.03;;;5.22;;
44098;SDS011;29762;50.086;14.364;2024-01-11T22:42:20;7.70;;;5.32;;
44098;SDS011;29762;50.086;14.364;2024-01-11T22:52:40;6.03;;;5.18;;
44098;SDS011;29762;50.086;14.364;2024-01-11T23:03:00;5.93;;;4.72;;
44098;SDS011;29762;50.086;14.364;2024-01-11T23:13:19;5.30;;;4.80;;
44098;SDS011;29762;50.086;14.364;2024-01-11T23:23:38;6.15;;;5.28;;
44098;SDS011;29762;50.086;14.364;2024-01-11T23:33:57;6.18;;;5.20;;
44098;SDS011;29762;50.086;14.364;2024-01-11T23:44:16;6.55;;;4.90;;
44098;SDS011;29762;50.086;14.364;2024-01-11T23:54:36;5.38;;;4.72;;
